Time;durP1;ratioP1;P1;durP2;ratioP2;P2;SDS_P1;SDS_P2;PMS_P1;PMS_P2;Temp;Humidity;BMP_temperature;BMP_pressure;BME280_temperature;BME280_humidity;BME280_pressure;Samples;Min_cycle;Max_cycle;Signal;HPM_P1;HPM_P2
2021/08/16 00:01:52;;;;;;;4.30;4.00;;;18.80;99.90;;;;;;494028;241;28871;-71
2021/08/16 00:03:53;;;;;;;4.60;4.20;;;18.90;99.90;;;;;;494016;241;28869;-71
2021/08/16 00:05:54;;;;;;;4.43;3.87;;;19.00;99.90;;;;;;494002;241;29347;-72
2021/08/16 00:07:56;;;;;;;4.20;3.80;;;19.00;99.90;;;;;;494020;241;29328;-72
2021/08/16 00:09:57;;;;;;;4.37;3.97;;;19.00;99.90;;;;;;494029;241;29339;-71
2021/08/16 00:11:58;;;;;;;4.63;3.70;;;19.10;99.90;;;;;;493980;241;29029;-72
2021/08/16 00:13:59;;;;;;;4.80;4.30;;;19.10;99.90;;;;;;494019;237;28837;-70
2021/08/16 00:16:01;;;;;;;4.03;3.73;;;19.00;99.90;;;;;;494024;241;28809;-69
2021/08/16 00:18:03;;;;;;;4.90;4.40;;;18.90;99.90;;;;;;494030;241;28937;-71
2021/08/16 00:20:03;;;;;;;5.53;4.43;;;18.80;99.90;;;;;;494001;241;28810;-70
2021/08/16 00:22:04;;;;;;;5.20;4.57;;;18.80;99.90;;;;;;494039;241;28966;-70
2021/08/16 00:24:06;;;;;;;5.77;4.70;;;18.70;99.90;;;;;;494030;241;28829;-69
2021/08/16 00:26:07;;;;;;;5.67;4.77;;;18.80;99.90;;;;;;494056;241;28862;-69
2021/08/16 00:28:08;;;;;;;4.80;4.07;;;18.80;99.90;;;;;;494030;241;28950;-70
2021/08/16 00:30:09;;;;;;;5.67;4.50;;;18.80;99.90;;;;;;494032;241;29256;-69
2021/08/16 00:32:11;;;;;;;5.00;4.53;;;18.80;99.90;;;;;;493993;241;29444;-70
2021/08/16 00:34:12;;;;;;;4.63;4.23;;;18.70;99.90;;;;;;494027;241;29509;-72
2021/08/16 00:36:13;;;;;;;5.10;4.60;;;18.80;99.90;;;;;;494064;241;28804;-72
2021/08/16 00:38:14;;;;;;;4.50;4.10;;;18.80;99.90;;;;;;494053;241;28841;-72
2021/08/16 00:40:16;;;;;;;4.67;4.27;;;18.80;99.90;;;;;;494056;241;28817;-72
2021/08/16 00:42:17;;;;;;;4.23;3.93;;;18.80;99.90;;;;;;494033;241;28860;-72
2021/08/16 00:44:18;;;;;;;4.43;4.13;;;18.80;99.90;;;;;;494045;241;28842;-70
2021/08/16 00:46:19;;;;;;;7.07;4.97;;;18.80;99.90;;;;;;494029;241;28813;-69
2021/08/16 00:48:21;;;;;;;4.80;4.13;;;18.80;99.90;;;;;;494076;241;28863;-70
2021/08/16 00:50:22;;;;;;;5.70;4.33;;;18.90;99.90;;;;;;494026;241;28871;-70
2021/08/16 00:52:23;;;;;;;5.40;4.90;;;18.80;99.90;;;;;;494025;241;28871;-70
2021/08/16 00:54:24;;;;;;;5.63;4.30;;;18.80;99.90;;;;;;494034;241;29309;-69
2021/08/16 00:56:26;;;;;;;4.83;4.33;;;18.80;99.90;;;;;;494026;241;29362;-69
2021/08/16 00:58:27;;;;;;;5.40;4.90;;;18.80;99.90;;;;;;494040;241;29350;-69
2021/08/16 01:00:28;;;;;;;4.83;4.37;;;18.90;99.90;;;;;;494024;241;28796;-71
2021/08/16 01:02:29;;;;;;;4.83;4.43;;;18.90;99.90;;;;;;494030;241;28816;-70
2021/08/16 01:04:31;;;;;;;5.63;4.77;;;18.90;99.90;;;;;;494001;241;28829;-71
2021/08/16 01:06:32;;;;;;;5.77;4.90;;;18.90;99.90;;;;;;494044;241;28801;-70
2021/08/16 01:08:33;;;;;;;4.73;4.17;;;19.00;99.90;;;;;;494046;241;28938;-70
2021/08/16 01:10:34;;;;;;;5.50;4.70;;;18.90;99.90;;;;;;494001;241;28821;-69
2021/08/16 01:12:36;;;;;;;5.63;4.30;;;19.00;99.90;;;;;;494015;241;28816;-72
2021/08/16 01:14:37;;;;;;;5.37;4.10;;;19.00;99.90;;;;;;494031;241;28944;-72
2021/08/16 01:16:38;;;;;;;6.90;4.60;;;19.00;99.90;;;;;;494020;237;28804;-70
2021/08/16 01:18:39;;;;;;;5.67;5.03;;;19.00;99.90;;;;;;493970;241;29446;-71
2021/08/16 01:20:41;;;;;;;6.17;4.57;;;19.00;99.90;;;;;;494023;241;30020;-71
2021/08/16 01:22:42;;;;;;;8.37;5.87;;;19.00;99.90;;;;;;494061;241;29260;-69
2021/08/16 01:24:43;;;;;;;6.00;5.07;;;18.90;99.90;;;;;;494026;241;29456;-69
2021/08/16 01:26:44;;;;;;;8.20;4.93;;;18.90;99.90;;;;;;494049;241;28802;-70
2021/08/16 01:28:46;;;;;;;5.93;5.00;;;18.90;99.90;;;;;;494031;241;28873;-69
2021/08/16 01:30:47;;;;;;;7.00;5.33;;;18.90;99.90;;;;;;494014;241;28869;-69
2021/08/16 01:32:48;;;;;;;6.53;5.80;;;18.90;99.90;;;;;;494021;241;28862;-69
2021/08/16 01:34:49;;;;;;;5.00;4.50;;;18.90;99.90;;;;;;494032;241;28968;-70
2021/08/16 01:36:51;;;;;;;5.83;5.10;;;18.90;99.90;;;;;;494016;241;28805;-71
2021/08/16 01:38:52;;;;;;;5.87;5.10;;;19.00;99.90;;;;;;494025;241;28836;-72
2021/08/16 01:40:53;;;;;;;5.33;4.83;;;19.00;99.90;;;;;;494024;241;28925;-72
2021/08/16 01:42:54;;;;;;;8.60;5.60;;;19.00;99.90;;;;;;494049;237;28809;-72
2021/08/16 01:44:56;;;;;;;5.30;4.83;;;19.00;99.90;;;;;;494038;240;29283;-71
2021/08/16 01:46:57;;;;;;;5.23;4.73;;;19.10;99.90;;;;;;494025;241;29421;-70
2021/08/16 01:48:58;;;;;;;10.10;5.77;;;19.00;99.90;;;;;;494007;241;29343;-69
2021/08/16 01:50:59;;;;;;;5.33;4.83;;;19.00;99.90;;;;;;494045;241;28837;-69
2021/08/16 01:53:01;;;;;;;5.67;5.17;;;19.00;99.90;;;;;;494016;241;28822;-71
2021/08/16 01:55:02;;;;;;;6.90;5.37;;;19.00;99.90;;;;;;494035;241;28860;-72
2021/08/16 01:57:03;;;;;;;7.20;5.10;;;19.00;99.90;;;;;;494024;241;28794;-71
2021/08/16 01:59:05;;;;;;;7.70;5.50;;;19.00;99.90;;;;;;494021;241;28829;-71
2021/08/16 02:01:06;;;;;;;5.57;4.80;;;18.90;99.90;;;;;;494068;241;28954;-71
2021/08/16 02:03:07;;;;;;;6.93;5.97;;;18.80;99.90;;;;;;494040;241;28860;-71
2021/08/16 02:05:08;;;;;;;6.47;5.37;;;18.80;99.90;;;;;;494036;241;28940;-71
2021/08/16 02:07:10;;;;;;;7.47;5.50;;;18.70;99.90;;;;;;494027;241;29289;-72
2021/08/16 02:09:11;;;;;;;6.00;4.80;;;18.70;99.90;;;;;;494027;241;29377;-69
2021/08/16 02:11:12;;;;;;;5.87;4.63;;;18.80;99.90;;;;;;494047;241;29384;-69
2021/08/16 02:13:13;;;;;;;6.03;4.97;;;18.80;99.90;;;;;;494049;241;29277;-69
2021/08/16 02:15:15;;;;;;;6.10;5.03;;;18.80;99.90;;;;;;494062;241;28931;-69
2021/08/16 02:17:16;;;;;;;7.17;5.40;;;18.70;99.90;;;;;;494016;241;28813;-70
2021/08/16 02:19:18;;;;;;;7.73;5.90;;;;;;;;;;494031;241;28873;-69
2021/08/16 02:21:20;;;;;;;13.80;5.90;;;;;;;;;;494034;241;27505;-69
2021/08/16 02:23:22;;;;;;;6.40;5.37;;;;;;;;;;494019;241;27533;-70
2021/08/16 02:25:24;;;;;;;8.07;4.80;;;;;;;;;;494048;241;27473;-71
2021/08/16 02:27:28;;;;;;;7.00;4.97;;;;;;;;;;494036;241;27482;-69
2021/08/16 02:29:29;;;;;;;8.10;5.00;;;;;;;;;;494042;241;26395;-72
2021/08/16 02:31:33;;;;;;;6.73;4.97;;;;;;;;;;494027;241;27584;-72
2021/08/16 02:33:36;;;;;;;5.30;4.37;;;;;;;;;;494046;241;26380;-72
2021/08/16 02:35:38;;;;;;;7.03;5.17;;;18.60;99.90;;;;;;494057;241;26503;-72
2021/08/16 02:37:40;;;;;;;6.90;5.33;;;;;;;;;;494033;241;27625;-69
2021/08/16 02:39:42;;;;;;;6.40;5.33;;;18.60;99.90;;;;;;494046;241;27529;-70
2021/08/16 02:41:43;;;;;;;6.93;5.03;;;;;;;;;;494038;237;30285;-72
2021/08/16 02:43:45;;;;;;;5.77;4.53;;;18.60;99.90;;;;;;494022;241;29078;-71
2021/08/16 02:45:48;;;;;;;7.53;5.53;;;;;;;;;;494017;241;29348;-72
2021/08/16 02:47:50;;;;;;;7.10;4.90;;;;;;;;;;494044;241;26481;-72
2021/08/16 02:49:53;;;;;;;4.83;4.37;;;;;;;;;;494028;241;27506;-71
2021/08/16 02:51:55;;;;;;;7.03;4.23;;;;;;;;;;494075;241;26923;-70
2021/08/16 02:53:59;;;;;;;6.90;4.67;;;;;;;;;;494022;241;27940;-69
2021/08/16 02:56:02;;;;;;;5.33;4.30;;;;;;;;;;494003;241;26378;-72
2021/08/16 02:58:05;;;;;;;5.20;4.40;;;;;;;;;;494029;237;26830;-72
2021/08/16 03:00:08;;;;;;;5.20;4.10;;;;;;;;;;494035;241;26454;-72
2021/08/16 03:02:11;;;;;;;6.13;4.40;;;;;;;;;;494024;241;26353;-71
2021/08/16 03:04:12;;;;;;;5.17;3.87;;;18.30;99.90;;;;;;494029;241;26890;-71
2021/08/16 03:06:16;;;;;;;5.20;4.70;;;;;;;;;;494034;241;28852;-72
2021/08/16 03:08:18;;;;;;;5.50;4.00;;;;;;;;;;494037;241;26373;-71
2021/08/16 03:10:21;;;;;;;7.57;4.40;;;;;;;;;;494049;241;27523;-71
2021/08/16 03:12:23;;;;;;;5.20;3.80;;;;;;;;;;494031;241;26391;-71
2021/08/16 03:14:26;;;;;;;5.80;3.80;;;;;;;;;;494005;241;27508;-71
2021/08/16 03:16:27;;;;;;;6.93;4.10;;;18.00;99.90;;;;;;494013;241;27592;-71
2021/08/16 03:18:29;;;;;;;5.73;3.50;;;18.00;99.90;;;;;;494004;237;29309;-71
2021/08/16 03:20:30;;;;;;;3.90;3.60;;;17.90;99.90;;;;;;494030;241;29327;-71
2021/08/16 03:22:32;;;;;;;5.00;3.60;;;;;;;;;;494033;241;28837;-71
2021/08/16 03:24:34;;;;;;;6.17;3.67;;;;;;;;;;494040;241;27489;-71
2021/08/16 03:26:36;;;;;;;5.27;3.70;;;;;;;;;;494057;241;27465;-71
2021/08/16 03:28:38;;;;;;;4.50;3.43;;;17.80;99.90;;;;;;494049;241;27520;-71
2021/08/16 03:30:41;;;;;;;4.73;3.80;;;;;;;;;;494028;241;27478;-71
2021/08/16 03:32:47;;;;;;;4.67;3.93;;;;;;;;;;494015;241;27462;-72
2021/08/16 03:34:45;;;;;;;9.70;4.00;;;17.70;99.90;;;;;;493852;241;26362;-69
2021/08/16 03:36:47;;;;;;;5.23;3.30;;;;;;;;;;494065;241;28851;-73
2021/08/16 03:38:50;;;;;;;3.80;3.40;;;;;;;;;;494052;241;27521;-72
2021/08/16 03:40:52;;;;;;;4.23;3.17;;;17.70;99.90;;;;;;494068;241;26348;-70
2021/08/16 03:42:54;;;;;;;4.90;3.23;;;17.70;99.90;;;;;;494077;241;27597;-69
2021/08/16 03:44:56;;;;;;;3.60;3.10;;;;;;;;;;494008;241;29290;-69
2021/08/16 03:46:59;;;;;;;4.50;3.13;;;;;;;;;;494041;237;27995;-70
2021/08/16 03:49:01;;;;;;;5.30;2.80;;;;;;;;;;494070;241;26482;-70
2021/08/16 03:51:03;;;;;;;4.40;3.17;;;;;;;;;;494091;241;27512;-72
2021/08/16 03:53:05;;;;;;;7.23;3.60;;;17.50;99.90;;;;;;494084;241;27852;-71
2021/08/16 03:55:07;;;;;;;4.20;3.47;;;;;;;;;;494052;241;28108;-70
2021/08/16 03:57:09;;;;;;;4.33;3.30;;;17.40;99.90;;;;;;494087;237;27989;-69
2021/08/16 03:59:12;;;;;;;3.70;3.10;;;17.40;99.90;;;;;;494069;241;28805;-72
2021/08/16 04:01:14;;;;;;;4.60;3.20;;;;;;;;;;494063;241;28837;-69
2021/08/16 04:03:16;;;;;;;4.13;3.30;;;;;;;;;;494065;241;26852;-72
2021/08/16 04:05:17;;;;;;;8.43;4.17;;;17.40;99.90;;;;;;494084;241;27997;-69
2021/08/16 04:07:20;;;;;;;6.00;3.93;;;;;;;;;;494035;241;30179;-70
2021/08/16 04:09:22;;;;;;;5.13;4.20;;;;;;;;;;494071;241;29934;-71
2021/08/16 04:11:24;;;;;;;5.53;3.40;;;17.30;99.90;;;;;;494070;241;27771;-71
2021/08/16 04:13:25;;;;;;;4.63;3.70;;;17.30;99.90;;;;;;494041;241;27520;-71
2021/08/16 04:15:27;;;;;;;4.23;3.73;;;;;;;;;;493870;241;28806;-71
2021/08/16 04:17:29;;;;;;;5.03;3.50;;;;;;;;;;494069;241;27595;-71
2021/08/16 04:19:33;;;;;;;4.40;3.20;;;;;;;;;;494090;241;27505;-72
2021/08/16 04:21:35;;;;;;;8.37;3.60;;;;;;;;;;494049;241;26399;-72
2021/08/16 04:23:36;;;;;;;3.50;2.93;;;17.00;99.90;;;;;;494043;241;27988;-71
2021/08/16 04:25:38;;;;;;;3.60;3.30;;;;;;;;;;494026;241;29452;-69
2021/08/16 04:27:40;;;;;;;6.10;2.83;;;;;;;;;;494030;241;28105;-71
2021/08/16 04:29:42;;;;;;;3.80;3.27;;;;;;;;;;494064;241;28000;-71
2021/08/16 04:31:44;;;;;;;3.20;2.90;;;;;;;;;;494065;241;27533;-72
2021/08/16 04:33:46;;;;;;;4.60;3.10;;;16.90;99.90;;;;;;494047;241;27532;-71
2021/08/16 04:35:49;;;;;;;3.43;2.87;;;;;;;;;;494052;241;27524;-70
2021/08/16 04:37:51;;;;;;;4.83;3.20;;;;;;;;;;494054;241;27512;-70
2021/08/16 04:39:52;;;;;;;6.33;3.13;;;16.70;99.90;;;;;;494053;241;27509;-70
2021/08/16 04:41:54;;;;;;;5.50;3.80;;;;;;;;;;494035;241;28808;-69
2021/08/16 04:43:55;;;;;;;3.00;2.70;;;16.80;99.90;;;;;;494007;241;28681;-70
2021/08/16 04:45:57;;;;;;;5.20;2.97;;;16.80;99.90;;;;;;494060;241;28802;-70
2021/08/16 04:47:59;;;;;;;4.10;2.80;;;;;;;;;;494040;241;28853;-70
2021/08/16 04:50:00;;;;;;;4.33;2.93;;;16.70;99.90;;;;;;494050;241;27518;-71
2021/08/16 04:52:02;;;;;;;3.63;2.50;;;16.60;99.90;;;;;;494048;241;28796;-70
2021/08/16 04:54:04;;;;;;;2.70;2.40;;;16.60;99.90;;;;;;494017;241;27494;-70
2021/08/16 04:56:05;;;;;;;4.63;2.87;;;16.50;99.90;;;;;;494050;241;27904;-72
2021/08/16 04:58:08;;;;;;;4.37;3.00;;;16.50;99.90;;;;;;494016;241;29406;-72
2021/08/16 05:00:11;;;;;;;4.67;2.60;;;;;;;;;;494034;241;27543;-70
2021/08/16 05:02:13;;;;;;;5.60;2.50;;;;;;;;;;494044;241;26395;-70
2021/08/16 05:04:16;;;;;;;6.20;2.70;;;;;;;;;;494038;241;27535;-72
2021/08/16 05:06:17;;;;;;;3.00;2.40;;;16.40;99.90;;;;;;494080;241;26366;-72
2021/08/16 05:08:19;;;;;;;4.03;2.57;;;16.30;99.90;;;;;;494051;241;28839;-72
2021/08/16 05:10:22;;;;;;;2.73;2.33;;;;;;;;;;494038;241;28843;-72
2021/08/16 05:12:25;;;;;;;3.20;2.40;;;;;;;;;;494048;241;26938;-72
2021/08/16 05:14:28;;;;;;;4.10;2.83;;;;;;;;;;494052;241;27710;-72
2021/08/16 05:16:30;;;;;;;3.40;2.60;;;;;;;;;;494046;238;26415;-72
2021/08/16 05:18:31;;;;;;;3.40;2.60;;;16.20;99.90;;;;;;494050;241;27472;-69
2021/08/16 05:20:35;;;;;;;3.97;2.53;;;16.10;99.90;;;;;;494029;241;28955;-70
2021/08/16 05:22:35;;;;;;;3.30;2.13;;;;;;;;;;493827;241;29371;-71
2021/08/16 05:24:36;;;;;;;3.97;3.27;;;16.00;99.90;;;;;;494036;241;26348;-72
2021/08/16 05:26:39;;;;;;;6.30;2.50;;;;;;;;;;493953;241;28935;-71
2021/08/16 05:28:42;;;;;;;4.50;2.80;;;;;;;;;;494022;241;26342;-72
2021/08/16 05:30:44;;;;;;;7.70;2.97;;;16.10;99.90;;;;;;494063;241;26356;-72
2021/08/16 05:32:48;;;;;;;3.53;2.40;;;;;;;;;;494023;241;27923;-71
2021/08/16 05:34:51;;;;;;;4.77;2.33;;;;;;;;;;494031;241;26396;-71
2021/08/16 05:36:53;;;;;;;3.90;2.20;;;;;;;;;;494065;241;26348;-72
2021/08/16 05:38:55;;;;;;;5.63;2.87;;;;;;;;;;494052;241;27459;-71
2021/08/16 05:40:58;;;;;;;4.33;2.47;;;;;;;;;;494009;241;27474;-71
2021/08/16 05:43:00;;;;;;;3.70;2.30;;;16.00;99.90;;;;;;494046;241;26401;-71
2021/08/16 05:45:03;;;;;;;3.80;2.63;;;;;;;;;;493897;241;27587;-70
2021/08/16 05:47:06;;;;;;;2.90;2.10;;;;;;;;;;494029;241;26348;-71
2021/08/16 05:49:08;;;;;;;2.67;2.00;;;;;;;;;;494026;237;27493;-73
2021/08/16 05:51:09;;;;;;;4.60;2.30;;;16.10;99.90;;;;;;494048;241;27481;-72
2021/08/16 05:53:10;;;;;;;4.00;2.50;;;16.10;99.90;;;;;;493978;241;28843;-71
2021/08/16 05:55:12;;;;;;;4.80;2.37;;;;;;;;;;494026;241;29320;-70
2021/08/16 05:57:14;;;;;;;5.83;2.40;;;;;;;;;;493958;241;28120;-71
2021/08/16 05:59:17;;;;;;;6.50;2.83;;;;;;;;;;493983;241;28065;-72
2021/08/16 06:01:19;;;;;;;3.40;2.47;;;16.20;99.90;;;;;;494052;241;26389;-72
2021/08/16 06:03:21;;;;;;;2.20;2.00;;;16.20;99.90;;;;;;494044;241;27502;-71
2021/08/16 06:05:23;;;;;;;5.10;2.80;;;16.20;99.90;;;;;;494004;241;27541;-72
2021/08/16 06:07:24;;;;;;;5.20;2.47;;;16.20;99.90;;;;;;494033;241;28938;-72
2021/08/16 06:09:25;;;;;;;4.10;2.57;;;16.10;99.90;;;;;;494004;241;29289;-72
2021/08/16 06:11:26;;;;;;;4.77;2.47;;;16.10;99.90;;;;;;494033;241;29335;-69
2021/08/16 06:13:28;;;;;;;2.60;1.77;;;16.10;99.90;;;;;;494013;241;29361;-70
2021/08/16 06:15:29;;;;;;;4.07;2.50;;;16.10;99.90;;;;;;493964;241;28801;-72
2021/08/16 06:17:31;;;;;;;4.73;2.27;;;16.00;99.90;;;;;;494051;241;28827;-72
2021/08/16 06:19:31;;;;;;;9.60;2.50;;;16.00;99.90;;;;;;493998;241;28825;-71
2021/08/16 06:21:33;;;;;;;3.47;2.67;;;16.00;99.90;;;;;;493982;241;28837;-71
2021/08/16 06:23:34;;;;;;;3.97;2.43;;;16.20;99.90;;;;;;494022;241;29217;-71
2021/08/16 06:25:35;;;;;;;3.27;2.30;;;16.30;99.90;;;;;;493998;241;28856;-72
2021/08/16 06:27:36;;;;;;;7.37;2.53;;;16.30;99.90;;;;;;494013;241;28909;-71
2021/08/16 06:29:38;;;;;;;3.10;2.40;;;16.20;99.90;;;;;;494035;241;28821;-71
2021/08/16 06:31:39;;;;;;;5.07;2.50;;;16.20;99.90;;;;;;493986;241;28939;-72
2021/08/16 06:33:41;;;;;;;2.40;2.20;;;16.20;99.90;;;;;;494018;241;29403;-73
2021/08/16 06:35:41;;;;;;;3.50;2.73;;;16.20;99.90;;;;;;493983;241;29301;-71
2021/08/16 06:37:45;;;;;;;3.27;2.40;;;16.30;99.90;;;;;;493991;241;29335;-72
2021/08/16 06:39:46;;;;;;;6.10;2.80;;;16.30;99.90;;;;;;493828;241;28824;-72
2021/08/16 06:41:45;;;;;;;5.27;2.90;;;16.40;99.90;;;;;;493826;241;28824;-71
2021/08/16 06:43:47;;;;;;;3.57;2.57;;;16.50;99.90;;;;;;494016;241;28850;-72
2021/08/16 06:45:48;;;;;;;6.83;3.07;;;16.60;99.90;;;;;;494005;241;28860;-70
2021/08/16 06:47:49;;;;;;;5.60;2.90;;;16.60;99.90;;;;;;493974;241;28873;-69
2021/08/16 06:49:50;;;;;;;7.00;2.73;;;16.60;99.90;;;;;;494004;241;28922;-70
2021/08/16 06:51:51;;;;;;;6.73;2.43;;;16.60;99.90;;;;;;494013;237;28877;-70
2021/08/16 06:53:53;;;;;;;2.40;2.20;;;16.70;99.90;;;;;;493992;241;28849;-70
2021/08/16 06:55:54;;;;;;;5.70;2.90;;;16.70;99.90;;;;;;493974;237;28827;-70
2021/08/16 06:57:55;;;;;;;6.07;3.13;;;16.80;99.90;;;;;;493986;241;29380;-70
2021/08/16 06:59:56;;;;;;;4.20;2.90;;;16.80;99.90;;;;;;494047;241;29326;-70
2021/08/16 07:01:58;;;;;;;4.60;2.60;;;16.90;99.90;;;;;;494014;237;29311;-70
2021/08/16 07:03:59;;;;;;;2.73;2.30;;;17.00;99.90;;;;;;493957;241;30138;-70
2021/08/16 07:06:00;;;;;;;3.30;2.50;;;17.10;99.90;;;;;;494022;241;28805;-70
2021/08/16 07:08:01;;;;;;;2.73;2.43;;;17.10;99.90;;;;;;494026;241;28971;-72
2021/08/16 07:10:03;;;;;;;4.33;3.03;;;17.10;99.90;;;;;;493984;241;28807;-72
2021/08/16 07:12:04;;;;;;;8.93;2.77;;;17.00;99.90;;;;;;494040;241;28804;-71
2021/08/16 07:14:05;;;;;;;4.57;2.57;;;17.00;99.90;;;;;;493987;241;28860;-71
2021/08/16 07:16:06;;;;;;;7.53;2.70;;;17.00;99.90;;;;;;494000;241;28923;-69
2021/08/16 07:18:08;;;;;;;4.23;2.60;;;17.20;99.90;;;;;;494026;241;28844;-70
2021/08/16 07:20:12;;;;;;;3.90;2.73;;;17.20;99.90;;;;;;493965;241;28829;-70
2021/08/16 07:22:13;;;;;;;3.73;2.40;;;17.20;99.90;;;;;;494030;241;28864;-72
2021/08/16 07:24:15;;;;;;;7.17;2.87;;;17.10;99.90;;;;;;494024;241;28847;-72
2021/08/16 07:26:16;;;;;;;3.40;2.60;;;17.10;99.90;;;;;;494008;241;28842;-72
2021/08/16 07:28:17;;;;;;;8.17;2.73;;;17.10;99.90;;;;;;494059;241;28849;-70
2021/08/16 07:30:18;;;;;;;8.50;2.63;;;17.10;99.90;;;;;;493989;241;28803;-72
2021/08/16 07:32:19;;;;;;;5.40;2.50;;;17.20;99.90;;;;;;494047;241;28944;-72
2021/08/16 07:34:22;;;;;;;6.53;2.50;;;17.10;99.90;;;;;;494052;241;29179;-72
2021/08/16 07:36:22;;;;;;;3.57;2.50;;;17.20;99.90;;;;;;493920;241;28868;-72
2021/08/16 07:38:23;;;;;;;3.70;2.60;;;17.30;99.90;;;;;;493994;241;29342;-72
2021/08/16 07:40:24;;;;;;;3.77;2.60;;;17.40;99.90;;;;;;494021;241;29334;-72
2021/08/16 07:42:26;;;;;;;3.60;2.27;;;17.40;99.90;;;;;;493966;241;29377;-71
2021/08/16 07:44:27;;;;;;;3.93;2.47;;;17.50;99.90;;;;;;494027;241;29255;-71
2021/08/16 07:46:28;;;;;;;4.30;2.23;;;17.50;99.90;;;;;;493962;241;29446;-70
2021/08/16 07:48:29;;;;;;;5.53;2.93;;;17.60;99.90;;;;;;494067;241;28852;-69
2021/08/16 07:50:31;;;;;;;3.90;2.60;;;17.60;99.90;;;;;;494055;241;28895;-70
2021/08/16 07:52:32;;;;;;;3.73;2.53;;;17.70;99.90;;;;;;493987;241;28944;-70
2021/08/16 07:54:33;;;;;;;5.67;2.80;;;17.80;99.90;;;;;;494009;241;28792;-70
2021/08/16 07:56:34;;;;;;;3.80;2.50;;;17.80;99.90;;;;;;494002;237;28989;-72
2021/08/16 07:58:36;;;;;;;3.10;2.30;;;17.90;99.90;;;;;;494000;241;29209;-72
2021/08/16 08:00:37;;;;;;;2.23;2.03;;;17.90;99.90;;;;;;494061;241;28819;-71
2021/08/16 08:02:38;;;;;;;2.67;2.43;;;18.00;99.90;;;;;;494008;241;28834;-72
2021/08/16 08:04:40;;;;;;;3.50;2.40;;;18.00;99.90;;;;;;493953;241;30272;-71
2021/08/16 08:06:41;;;;;;;5.20;2.40;;;17.90;99.90;;;;;;493632;241;29805;-72
2021/08/16 08:08:42;;;;;;;5.37;2.37;;;17.90;99.90;;;;;;493829;241;29347;-70
2021/08/16 08:10:43;;;;;;;2.80;2.00;;;17.90;99.90;;;;;;493779;241;29345;-70
2021/08/16 08:12:44;;;;;;;2.57;2.17;;;18.00;99.90;;;;;;494053;241;28906;-69
2021/08/16 08:14:46;;;;;;;3.07;2.20;;;18.20;99.90;;;;;;493623;241;28846;-70
2021/08/16 08:16:47;;;;;;;3.00;2.60;;;18.40;99.90;;;;;;493953;241;28828;-70
2021/08/16 08:18:48;;;;;;;3.10;2.13;;;18.40;99.90;;;;;;494039;241;28871;-70
2021/08/16 08:20:49;;;;;;;4.00;2.10;;;18.40;99.90;;;;;;494018;237;28828;-72
2021/08/16 08:22:51;;;;;;;3.77;2.23;;;18.40;99.90;;;;;;494031;237;29351;-72
2021/08/16 08:24:52;;;;;;;5.53;2.30;;;18.50;99.90;;;;;;493999;241;28936;-70
2021/08/16 08:26:53;;;;;;;2.43;1.70;;;18.60;99.90;;;;;;494006;241;28949;-71
2021/08/16 08:28:54;;;;;;;2.90;2.17;;;18.80;99.90;;;;;;494038;241;29409;-71
2021/08/16 08:30:56;;;;;;;3.20;1.90;;;19.00;99.90;;;;;;494029;241;29295;-71
2021/08/16 08:32:57;;;;;;;6.00;2.00;;;18.60;99.90;;;;;;494036;241;29330;-72
2021/08/16 08:34:58;;;;;;;3.83;2.30;;;18.50;99.90;;;;;;494017;241;29264;-71
2021/08/16 08:36:59;;;;;;;2.50;2.30;;;18.40;99.90;;;;;;494040;237;28868;-70
2021/08/16 08:39:01;;;;;;;3.20;1.97;;;18.50;99.90;;;;;;494049;241;28856;-70
2021/08/16 08:41:02;;;;;;;2.60;2.00;;;18.70;99.90;;;;;;494058;241;28804;-71
2021/08/16 08:43:03;;;;;;;4.03;2.00;;;18.60;99.90;;;;;;494023;241;28997;-72
2021/08/16 08:45:05;;;;;;;1.97;1.77;;;18.70;99.90;;;;;;494044;241;28800;-71
2021/08/16 08:47:06;;;;;;;2.67;2.17;;;18.90;99.90;;;;;;494045;241;28837;-71
2021/08/16 08:49:08;;;;;;;2.70;2.00;;;18.90;99.90;;;;;;494073;241;28838;-71
2021/08/16 08:51:08;;;;;;;3.00;2.40;;;18.70;99.90;;;;;;494046;241;28795;-72
2021/08/16 08:53:10;;;;;;;2.20;2.00;;;18.60;99.90;;;;;;494026;241;28838;-72
2021/08/16 08:55:11;;;;;;;3.70;2.00;;;18.70;99.90;;;;;;494031;241;29671;-72
2021/08/16 08:57:12;;;;;;;3.10;2.40;;;18.80;99.90;;;;;;493980;241;29328;-71
2021/08/16 08:59:13;;;;;;;4.53;2.27;;;18.80;99.90;;;;;;494010;241;29362;-71
2021/08/16 09:01:15;;;;;;;3.43;2.17;;;18.90;99.90;;;;;;493997;237;28821;-71
2021/08/16 09:03:16;;;;;;;3.70;2.13;;;19.10;99.90;;;;;;493973;241;28933;-71
2021/08/16 09:05:17;;;;;;;4.90;2.60;;;19.00;99.90;;;;;;494002;241;28806;-71
2021/08/16 09:07:18;;;;;;;2.40;2.20;;;19.00;99.90;;;;;;494024;241;28923;-71
2021/08/16 09:09:20;;;;;;;2.87;2.27;;;19.30;99.90;;;;;;494042;241;29308;-72
2021/08/16 09:11:21;;;;;;;7.40;2.63;;;19.50;99.90;;;;;;493969;241;28848;-70
2021/08/16 09:13:22;;;;;;;3.27;2.10;;;19.40;99.90;;;;;;494003;241;28843;-72
2021/08/16 09:15:23;;;;;;;5.87;2.77;;;19.40;99.90;;;;;;493999;241;28960;-70
2021/08/16 09:17:25;;;;;;;7.10;2.87;;;19.30;99.90;;;;;;494023;241;29059;-69
2021/08/16 09:19:26;;;;;;;6.10;2.00;;;19.50;99.90;;;;;;494048;241;29329;-71
2021/08/16 09:21:29;;;;;;;3.13;2.00;;;;;;;;;;494024;241;28829;-72
2021/08/16 09:23:29;;;;;;;4.87;2.60;;;19.60;99.90;;;;;;493975;241;27917;-71
2021/08/16 09:25:34;;;;;;;3.57;2.00;;;19.60;99.90;;;;;;494019;241;29324;-71
2021/08/16 09:27:32;;;;;;;4.97;2.90;;;19.40;99.90;;;;;;493785;241;29308;-70
2021/08/16 09:29:33;;;;;;;3.23;2.10;;;18.90;99.90;;;;;;494035;241;29303;-71
2021/08/16 09:31:34;;;;;;;3.00;2.50;;;18.90;99.90;;;;;;487953;238;28791;-70
2021/08/16 09:33:35;;;;;;;4.00;2.40;;;19.10;99.90;;;;;;485288;245;28783;-71
2021/08/16 09:35:37;;;;;;;3.27;2.67;;;19.50;99.90;;;;;;485269;245;28860;-72
2021/08/16 09:37:39;;;;;;;3.97;2.10;;;19.60;99.90;;;;;;485279;245;28763;-71
2021/08/16 09:39:42;;;;;;;3.40;2.57;;;19.60;99.90;;;;;;485264;245;28899;-71
2021/08/16 09:41:40;;;;;;;4.50;2.20;;;19.50;99.90;;;;;;485174;245;29200;-71
2021/08/16 09:43:42;;;;;;;4.20;2.50;;;19.30;99.90;;;;;;485238;245;28903;-71
2021/08/16 09:45:43;;;;;;;2.90;2.03;;;19.10;99.90;;;;;;485252;245;28801;-72
2021/08/16 09:47:44;;;;;;;3.43;2.20;;;18.90;99.90;;;;;;485219;245;28780;-71
2021/08/16 09:49:46;;;;;;;3.03;2.37;;;;;;;;;;485223;245;29303;-71
2021/08/16 09:51:48;;;;;;;5.20;2.50;;;18.50;99.90;;;;;;485012;245;27951;-72
2021/08/16 09:53:50;;;;;;;2.80;2.37;;;18.50;99.90;;;;;;485242;245;29983;-72
2021/08/16 09:55:50;;;;;;;5.30;2.33;;;18.50;99.90;;;;;;485149;245;28755;-72
2021/08/16 09:57:51;;;;;;;3.17;2.23;;;18.40;99.90;;;;;;485204;245;28803;-71
2021/08/16 09:59:53;;;;;;;4.73;2.30;;;18.40;99.90;;;;;;485216;245;28760;-72
2021/08/16 10:01:54;;;;;;;5.00;2.30;;;18.50;99.90;;;;;;485213;245;28869;-71
2021/08/16 10:03:55;;;;;;;3.30;2.20;;;18.50;99.90;;;;;;485241;245;28765;-71
2021/08/16 10:05:56;;;;;;;2.40;2.20;;;18.70;99.90;;;;;;485121;245;28799;-72
2021/08/16 10:07:58;;;;;;;4.07;2.40;;;18.70;99.90;;;;;;485155;245;28779;-72
2021/08/16 10:10:02;;;;;;;3.60;2.30;;;18.70;99.90;;;;;;485222;245;28752;-72
2021/08/16 10:12:03;;;;;;;2.73;2.43;;;18.90;99.90;;;;;;485120;245;29375;-71
2021/08/16 10:14:04;;;;;;;2.53;2.00;;;19.00;99.90;;;;;;485235;245;29278;-72
2021/08/16 10:16:06;;;;;;;4.10;2.17;;;19.30;99.90;;;;;;485156;241;28795;-71
2021/08/16 10:18:07;;;;;;;1.83;1.73;;;19.50;99.90;;;;;;485126;245;28753;-72
2021/08/16 10:20:08;;;;;;;5.10;2.47;;;19.70;99.90;;;;;;485224;245;28786;-70
2021/08/16 10:22:09;;;;;;;4.33;2.17;;;19.90;99.90;;;;;;485122;245;28797;-71
2021/08/16 10:24:11;;;;;;;2.50;1.97;;;20.10;99.90;;;;;;485208;241;28851;-71
2021/08/16 10:26:12;;;;;;;3.40;2.77;;;20.00;99.90;;;;;;485198;245;28783;-71
2021/08/16 10:28:13;;;;;;;4.03;2.40;;;20.20;99.90;;;;;;485282;245;28761;-71
2021/08/16 10:30:14;;;;;;;4.07;2.20;;;20.10;99.90;;;;;;485208;245;28807;-70
2021/08/16 10:32:16;;;;;;;3.83;2.40;;;20.40;99.90;;;;;;485172;245;28785;-71
2021/08/16 10:34:17;;;;;;;3.27;2.13;;;20.60;99.90;;;;;;485226;245;29237;-71
2021/08/16 10:36:18;;;;;;;2.20;2.00;;;20.40;99.90;;;;;;485244;245;29428;-72
2021/08/16 10:38:19;;;;;;;4.53;2.57;;;20.00;99.90;;;;;;485259;245;29230;-71
2021/08/16 10:40:22;;;;;;;3.20;2.10;;;19.40;99.90;;;;;;485220;245;28795;-72
2021/08/16 10:42:23;;;;;;;4.10;2.43;;;18.90;99.90;;;;;;485182;245;28816;-71
2021/08/16 10:44:24;;;;;;;3.23;2.43;;;18.90;99.90;;;;;;485200;245;27433;-71
2021/08/16 10:46:25;;;;;;;4.10;2.37;;;18.90;99.90;;;;;;485170;245;28804;-72
2021/08/16 10:48:26;;;;;;;5.37;2.50;;;19.00;99.90;;;;;;485132;245;28875;-72
2021/08/16 10:50:28;;;;;;;4.40;2.90;;;18.90;99.90;;;;;;485208;245;28776;-71
2021/08/16 10:52:29;;;;;;;4.57;3.03;;;19.10;99.90;;;;;;485065;245;28848;-71